sensor_id;sensor_type;location;lat;lon;timestamp;P1;durP1;ratioP1;P2;durP2;ratioP2
17917;SDS011;9084;50.956;3.106;2022-09-30T00:00:41;4.90;;;4.50;;
17917;SDS011;9084;50.956;3.106;2022-09-30T00:03:09;4.28;;;3.97;;
17917;SDS011;9084;50.956;3.106;2022-09-30T00:05:37;5.03;;;4.25;;
17917;SDS011;9084;50.956;3.106;2022-09-30T00:08:06;5.25;;;4.75;;
17917;SDS011;9084;50.956;3.106;2022-09-30T00:10:34;5.00;;;4.60;;
17917;SDS011;9084;50.956;3.106;2022-09-30T00:13:19;4.80;;;4.40;;
17917;SDS011;9084;50.956;3.106;2022-09-30T00:15:46;6.97;;;4.78;;
17917;SDS011;9084;50.956;3.106;2022-09-30T00:18:11;5.15;;;4.72;;
17917;SDS011;9084;50.956;3.106;2022-09-30T00:20:39;4.53;;;4.00;;
17917;SDS011;9084;50.956;3.106;2022-09-30T00:23:07;5.25;;;4.47;;
17917;SDS011;9084;50.956;3.106;2022-09-30T00:25:33;4.97;;;4.57;;
17917;SDS011;9084;50.956;3.106;2022-09-30T00:27:58;4.63;;;4.22;;
17917;SDS011;9084;50.956;3.106;2022-09-30T00:30:24;4.35;;;3.95;;
17917;SDS011;9084;50.956;3.106;2022-09-30T00:32:52;4.88;;;4.47;;
17917;SDS011;9084;50.956;3.106;2022-09-30T00:35:17;4.82;;;4.43;;
17917;SDS011;9084;50.956;3.106;2022-09-30T00:37:46;5.30;;;4.70;;
17917;SDS011;9084;50.956;3.106;2022-09-30T00:40:14;4.43;;;4.05;;
17917;SDS011;9084;50.956;3.106;2022-09-30T00:42:39;4.70;;;4.07;;
17917;SDS011;9084;50.956;3.106;2022-09-30T00:45:07;4.13;;;3.83;;
17917;SDS011;9084;50.956;3.106;2022-09-30T00:52:45;4.50;;;4.10;;
17917;SDS011;9084;50.956;3.106;2022-09-30T00:55:41;6.20;;;4.70;;
17917;SDS011;9084;50.956;3.106;2022-09-30T00:58:24;4.53;;;4.13;;
17917;SDS011;9084;50.956;3.106;2022-09-30T01:00:55;5.00;;;4.55;;
17917;SDS011;9084;50.956;3.106;2022-09-30T01:03:23;4.60;;;4.18;;
17917;SDS011;9084;50.956;3.106;2022-09-30T01:05:50;4.15;;;3.85;;
17917;SDS011;9084;50.956;3.106;2022-09-30T01:08:19;4.45;;;4.05;;
17917;SDS011;9084;50.956;3.106;2022-09-30T01:10:46;4.70;;;4.25;;
17917;SDS011;9084;50.956;3.106;2022-09-30T01:13:12;4.53;;;4.22;;
17917;SDS011;9084;50.956;3.106;2022-09-30T01:18:27;4.57;;;4.18;;
17917;SDS011;9084;50.956;3.106;2022-09-30T01:32:43;4.65;;;3.92;;
17917;SDS011;9084;50.956;3.106;2022-09-30T01:35:22;4.10;;;3.80;;
17917;SDS011;9084;50.956;3.106;2022-09-30T01:38:26;3.78;;;3.42;;
17917;SDS011;9084;50.956;3.106;2022-09-30T01:46:02;3.78;;;3.47;;
17917;SDS011;9084;50.956;3.106;2022-09-30T01:48:40;3.83;;;3.53;;
17917;SDS011;9084;50.956;3.106;2022-09-30T01:51:14;3.53;;;3.30;;
17917;SDS011;9084;50.956;3.106;2022-09-30T01:56:31;3.72;;;3.42;;
17917;SDS011;9084;50.956;3.106;2022-09-30T01:59:06;3.95;;;3.65;;
17917;SDS011;9084;50.956;3.106;2022-09-30T02:01:43;3.47;;;3.17;;
17917;SDS011;9084;50.956;3.106;2022-09-30T02:04:24;3.83;;;3.40;;
17917;SDS011;9084;50.956;3.106;2022-09-30T02:06:57;3.92;;;3.63;;
17917;SDS011;9084;50.956;3.106;2022-09-30T02:09:36;3.95;;;3.67;;
17917;SDS011;9084;50.956;3.106;2022-09-30T02:12:12;3.57;;;3.23;;
17917;SDS011;9084;50.956;3.106;2022-09-30T02:14:44;3.70;;;3.40;;
17917;SDS011;9084;50.956;3.106;2022-09-30T02:17:48;3.83;;;3.53;;
17917;SDS011;9084;50.956;3.106;2022-09-30T02:20:17;4.20;;;3.25;;
17917;SDS011;9084;50.956;3.106;2022-09-30T02:22:55;4.20;;;3.80;;
17917;SDS011;9084;50.956;3.106;2022-09-30T02:25:28;4.07;;;3.77;;
17917;SDS011;9084;50.956;3.106;2022-09-30T02:28:00;3.87;;;3.57;;
17917;SDS011;9084;50.956;3.106;2022-09-30T02:30:34;4.20;;;3.90;;
17917;SDS011;9084;50.956;3.106;2022-09-30T02:33:09;4.40;;;4.00;;
17917;SDS011;9084;50.956;3.106;2022-09-30T02:35:47;3.87;;;3.57;;
17917;SDS011;9084;50.956;3.106;2022-09-30T02:38:19;4.37;;;3.97;;
17917;SDS011;9084;50.956;3.106;2022-09-30T02:40:57;5.18;;;3.63;;
17917;SDS011;9084;50.956;3.106;2022-09-30T02:43:30;4.57;;;4.17;;
17917;SDS011;9084;50.956;3.106;2022-09-30T02:46:03;3.83;;;3.53;;
17917;SDS011;9084;50.956;3.106;2022-09-30T02:51:36;5.00;;;3.70;;
17917;SDS011;9084;50.956;3.106;2022-09-30T02:54:13;5.23;;;4.40;;
17917;SDS011;9084;50.956;3.106;2022-09-30T02:56:47;4.27;;;3.97;;
17917;SDS011;9084;50.956;3.106;2022-09-30T02:59:19;5.07;;;4.35;;
17917;SDS011;9084;50.956;3.106;2022-09-30T03:01:46;4.00;;;3.70;;
17917;SDS011;9084;50.956;3.106;2022-09-30T03:04:14;3.88;;;3.50;;
17917;SDS011;9084;50.956;3.106;2022-09-30T03:06:47;3.97;;;3.60;;
17917;SDS011;9084;50.956;3.106;2022-09-30T03:09:15;3.57;;;3.37;;
17917;SDS011;9084;50.956;3.106;2022-09-30T03:11:42;3.72;;;3.42;;
17917;SDS011;9084;50.956;3.106;2022-09-30T03:14:16;3.93;;;3.63;;
17917;SDS011;9084;50.956;3.106;2022-09-30T03:23:18;4.50;;;4.10;;
17917;SDS011;9084;50.956;3.106;2022-09-30T03:26:09;5.03;;;4.57;;
17917;SDS011;9084;50.956;3.106;2022-09-30T03:28:49;4.47;;;3.50;;
17917;SDS011;9084;50.956;3.106;2022-09-30T03:31:43;3.70;;;3.40;;
17917;SDS011;9084;50.956;3.106;2022-09-30T03:39:58;4.63;;;4.23;;
17917;SDS011;9084;50.956;3.106;2022-09-30T03:42:35;4.30;;;4.00;;
17917;SDS011;9084;50.956;3.106;2022-09-30T03:45:19;4.63;;;4.30;;
17917;SDS011;9084;50.956;3.106;2022-09-30T03:47:52;4.53;;;4.07;;
17917;SDS011;9084;50.956;3.106;2022-09-30T03:50:22;4.47;;;4.07;;
17917;SDS011;9084;50.956;3.106;2022-09-30T03:52:51;4.70;;;4.30;;
17917;SDS011;9084;50.956;3.106;2022-09-30T03:55:17;4.73;;;4.37;;
17917;SDS011;9084;50.956;3.106;2022-09-30T03:57:44;4.73;;;4.33;;
17917;SDS011;9084;50.956;3.106;2022-09-30T04:00:12;5.67;;;4.87;;
17917;SDS011;9084;50.956;3.106;2022-09-30T04:02:38;5.85;;;5.25;;
17917;SDS011;9084;50.956;3.106;2022-09-30T04:05:05;5.93;;;5.20;;
17917;SDS011;9084;50.956;3.106;2022-09-30T04:07:32;5.90;;;5.40;;
17917;SDS011;9084;50.956;3.106;2022-09-30T04:10:00;5.50;;;5.07;;
17917;SDS011;9084;50.956;3.106;2022-09-30T04:12:28;6.43;;;5.63;;
17917;SDS011;9084;50.956;3.106;2022-09-30T04:14:54;5.80;;;5.37;;
17917;SDS011;9084;50.956;3.106;2022-09-30T04:17:20;6.05;;;5.45;;
17917;SDS011;9084;50.956;3.106;2022-09-30T04:19:45;5.70;;;5.30;;
17917;SDS011;9084;50.956;3.106;2022-09-30T04:22:11;5.82;;;4.90;;
17917;SDS011;9084;50.956;3.106;2022-09-30T04:24:37;7.05;;;5.50;;
17917;SDS011;9084;50.956;3.106;2022-09-30T04:27:03;4.93;;;4.53;;
17917;SDS011;9084;50.956;3.106;2022-09-30T04:29:29;5.85;;;5.45;;
17917;SDS011;9084;50.956;3.106;2022-09-30T04:31:57;6.80;;;6.25;;
17917;SDS011;9084;50.956;3.106;2022-09-30T04:34:23;6.65;;;6.07;;
17917;SDS011;9084;50.956;3.106;2022-09-30T04:36:51;6.87;;;6.27;;
17917;SDS011;9084;50.956;3.106;2022-09-30T04:39:17;5.05;;;4.63;;
17917;SDS011;9084;50.956;3.106;2022-09-30T04:41:43;5.00;;;4.60;;
17917;SDS011;9084;50.956;3.106;2022-09-30T04:44:09;4.70;;;4.20;;
17917;SDS011;9084;50.956;3.106;2022-09-30T04:46:35;5.25;;;4.85;;
17917;SDS011;9084;50.956;3.106;2022-09-30T04:49:02;4.95;;;4.53;;
17917;SDS011;9084;50.956;3.106;2022-09-30T04:51:29;5.70;;;4.77;;
17917;SDS011;9084;50.956;3.106;2022-09-30T04:53:54;5.55;;;5.05;;
17917;SDS011;9084;50.956;3.106;2022-09-30T04:56:20;5.35;;;4.95;;
17917;SDS011;9084;50.956;3.106;2022-09-30T04:58:50;6.53;;;5.93;;
17917;SDS011;9084;50.956;3.106;2022-09-30T05:01:16;10.43;;;9.43;;
17917;SDS011;9084;50.956;3.106;2022-09-30T05:03:45;9.30;;;8.38;;
17917;SDS011;9084;50.956;3.106;2022-09-30T05:06:14;9.70;;;8.27;;
17917;SDS011;9084;50.956;3.106;2022-09-30T05:08:41;8.13;;;7.32;;
17917;SDS011;9084;50.956;3.106;2022-09-30T05:11:09;8.07;;;7.37;;
17917;SDS011;9084;50.956;3.106;2022-09-30T05:13:41;7.17;;;6.63;;
17917;SDS011;9084;50.956;3.106;2022-09-30T05:16:09;6.63;;;6.10;;
17917;SDS011;9084;50.956;3.106;2022-09-30T05:18:37;6.07;;;5.47;;
17917;SDS011;9084;50.956;3.106;2022-09-30T05:21:06;5.75;;;5.25;;
17917;SDS011;9084;50.956;3.106;2022-09-30T05:23:31;5.07;;;4.67;;
17917;SDS011;9084;50.956;3.106;2022-09-30T05:26:00;5.95;;;5.00;;
17917;SDS011;9084;50.956;3.106;2022-09-30T05:28:26;4.67;;;4.37;;
17917;SDS011;9084;50.956;3.106;2022-09-30T05:30:54;4.83;;;4.17;;
17917;SDS011;9084;50.956;3.106;2022-09-30T05:33:27;4.70;;;4.18;;
17917;SDS011;9084;50.956;3.106;2022-09-30T05:35:54;4.43;;;4.03;;
17917;SDS011;9084;50.956;3.106;2022-09-30T05:38:22;4.70;;;4.10;;
17917;SDS011;9084;50.956;3.106;2022-09-30T05:40:48;4.90;;;4.38;;
17917;SDS011;9084;50.956;3.106;2022-09-30T05:43:14;4.30;;;4.00;;
17917;SDS011;9084;50.956;3.106;2022-09-30T05:45:39;5.07;;;4.07;;
17917;SDS011;9084;50.956;3.106;2022-09-30T05:48:10;4.15;;;3.75;;
17917;SDS011;9084;50.956;3.106;2022-09-30T05:50:38;4.70;;;3.83;;
17917;SDS011;9084;50.956;3.106;2022-09-30T05:53:04;3.95;;;3.65;;
17917;SDS011;9084;50.956;3.106;2022-09-30T05:55:29;5.20;;;4.00;;
17917;SDS011;9084;50.956;3.106;2022-09-30T05:57:55;3.72;;;3.40;;
17917;SDS011;9084;50.956;3.106;2022-09-30T06:00:23;4.00;;;3.63;;
17917;SDS011;9084;50.956;3.106;2022-09-30T06:02:51;5.30;;;3.85;;
17917;SDS011;9084;50.956;3.106;2022-09-30T06:05:18;4.55;;;4.18;;
17917;SDS011;9084;50.956;3.106;2022-09-30T06:07:49;4.53;;;4.10;;
17917;SDS011;9084;50.956;3.106;2022-09-30T06:10:15;5.38;;;4.03;;
17917;SDS011;9084;50.956;3.106;2022-09-30T06:12:43;4.10;;;3.80;;
17917;SDS011;9084;50.956;3.106;2022-09-30T06:15:11;5.55;;;3.85;;
17917;SDS011;9084;50.956;3.106;2022-09-30T06:17:37;4.60;;;4.13;;
17917;SDS011;9084;50.956;3.106;2022-09-30T06:20:06;6.50;;;4.03;;
17917;SDS011;9084;50.956;3.106;2022-09-30T06:22:33;4.55;;;4.05;;
17917;SDS011;9084;50.956;3.106;2022-09-30T06:25:00;7.68;;;4.47;;
17917;SDS011;9084;50.956;3.106;2022-09-30T06:27:28;5.03;;;4.50;;
17917;SDS011;9084;50.956;3.106;2022-09-30T06:29:53;4.80;;;4.30;;
17917;SDS011;9084;50.956;3.106;2022-09-30T06:32:22;5.53;;;5.00;;
17917;SDS011;9084;50.956;3.106;2022-09-30T06:34:50;4.85;;;4.45;;
17917;SDS011;9084;50.956;3.106;2022-09-30T06:37:19;6.00;;;4.50;;
17917;SDS011;9084;50.956;3.106;2022-09-30T06:39:45;5.68;;;4.75;;
17917;SDS011;9084;50.956;3.106;2022-09-30T06:42:14;4.47;;;4.07;;
17917;SDS011;9084;50.956;3.106;2022-09-30T06:44:42;5.18;;;4.70;;
17917;SDS011;9084;50.956;3.106;2022-09-30T06:47:09;7.13;;;5.05;;
17917;SDS011;9084;50.956;3.106;2022-09-30T06:49:35;4.78;;;4.38;;
17917;SDS011;9084;50.956;3.106;2022-09-30T06:52:00;4.78;;;4.38;;
17917;SDS011;9084;50.956;3.106;2022-09-30T06:54:26;6.20;;;4.85;;
17917;SDS011;9084;50.956;3.106;2022-09-30T06:56:53;10.10;;;6.15;;
17917;SDS011;9084;50.956;3.106;2022-09-30T06:59:21;12.07;;;8.27;;
17917;SDS011;9084;50.956;3.106;2022-09-30T07:01:50;12.68;;;7.60;;
17917;SDS011;9084;50.956;3.106;2022-09-30T07:04:16;12.35;;;6.82;;
17917;SDS011;9084;50.956;3.106;2022-09-30T07:06:47;8.75;;;7.80;;
17917;SDS011;9084;50.956;3.106;2022-09-30T07:09:13;9.27;;;7.75;;
17917;SDS011;9084;50.956;3.106;2022-09-30T07:11:44;12.02;;;7.80;;
17917;SDS011;9084;50.956;3.106;2022-09-30T07:14:10;9.75;;;7.93;;
17917;SDS011;9084;50.956;3.106;2022-09-30T07:16:39;12.57;;;10.65;;
17917;SDS011;9084;50.956;3.106;2022-09-30T07:19:09;13.65;;;9.32;;
17917;SDS011;9084;50.956;3.106;2022-09-30T07:21:35;10.82;;;9.73;;
17917;SDS011;9084;50.956;3.106;2022-09-30T07:24:03;9.07;;;8.23;;
17917;SDS011;9084;50.956;3.106;2022-09-30T07:26:32;11.77;;;8.88;;
17917;SDS011;9084;50.956;3.106;2022-09-30T07:28:58;9.77;;;8.82;;
17917;SDS011;9084;50.956;3.106;2022-09-30T07:31:24;11.45;;;8.93;;
17917;SDS011;9084;50.956;3.106;2022-09-30T07:33:53;9.63;;;8.73;;
17917;SDS011;9084;50.956;3.106;2022-09-30T07:36:21;8.55;;;7.75;;
17917;SDS011;9084;50.956;3.106;2022-09-30T07:38:51;14.35;;;11.27;;
17917;SDS011;9084;50.956;3.106;2022-09-30T07:41:24;12.07;;;10.18;;
17917;SDS011;9084;50.956;3.106;2022-09-30T07:43:53;10.25;;;8.85;;
17917;SDS011;9084;50.956;3.106;2022-09-30T07:46:26;11.25;;;9.68;;
17917;SDS011;9084;50.956;3.106;2022-09-30T07:48:57;12.02;;;10.70;;
17917;SDS011;9084;50.956;3.106;2022-09-30T07:51:35;10.88;;;9.75;;
17917;SDS011;9084;50.956;3.106;2022-09-30T07:54:06;9.55;;;8.57;;
17917;SDS011;9084;50.956;3.106;2022-09-30T07:56:37;8.27;;;7.47;;
17917;SDS011;9084;50.956;3.106;2022-09-30T07:59:04;10.43;;;8.70;;
17917;SDS011;9084;50.956;3.106;2022-09-30T08:01:31;9.68;;;8.27;;
17917;SDS011;9084;50.956;3.106;2022-09-30T08:04:01;8.63;;;7.72;;
17917;SDS011;9084;50.956;3.106;2022-09-30T08:06:28;8.38;;;7.68;;
17917;SDS011;9084;50.956;3.106;2022-09-30T08:08:56;8.43;;;7.63;;
17917;SDS011;9084;50.956;3.106;2022-09-30T08:11:22;8.95;;;8.02;;
17917;SDS011;9084;50.956;3.106;2022-09-30T08:13:54;9.05;;;8.10;;
17917;SDS011;9084;50.956;3.106;2022-09-30T08:16:21;8.10;;;7.40;;
17917;SDS011;9084;50.956;3.106;2022-09-30T08:18:53;8.93;;;7.10;;
17917;SDS011;9084;50.956;3.106;2022-09-30T08:21:22;7.18;;;6.55;;
17917;SDS011;9084;50.956;3.106;2022-09-30T08:23:49;7.53;;;6.82;;
17917;SDS011;9084;50.956;3.106;2022-09-30T08:26:18;7.75;;;6.97;;
17917;SDS011;9084;50.956;3.106;2022-09-30T08:28:44;6.13;;;5.63;;
17917;SDS011;9084;50.956;3.106;2022-09-30T08:31:19;6.47;;;5.97;;
17917;SDS011;9084;50.956;3.106;2022-09-30T08:33:46;10.60;;;6.45;;
17917;SDS011;9084;50.956;3.106;2022-09-30T08:36:13;7.63;;;6.57;;
17917;SDS011;9084;50.956;3.106;2022-09-30T08:38:40;7.85;;;6.68;;
17917;SDS011;9084;50.956;3.106;2022-09-30T08:46:44;8.15;;;7.25;;
17917;SDS011;9084;50.956;3.106;2022-09-30T08:52:07;6.75;;;6.25;;
17917;SDS011;9084;50.956;3.106;2022-09-30T08:54:45;7.13;;;6.43;;
17917;SDS011;9084;50.956;3.106;2022-09-30T08:57:16;6.85;;;6.22;;
17917;SDS011;9084;50.956;3.106;2022-09-30T08:59:44;7.15;;;6.28;;
17917;SDS011;9084;50.956;3.106;2022-09-30T09:06:00;7.32;;;6.32;;
17917;SDS011;9084;50.956;3.106;2022-09-30T09:10:57;5.60;;;5.03;;
17917;SDS011;9084;50.956;3.106;2022-09-30T09:16:14;4.95;;;4.55;;
17917;SDS011;9084;50.956;3.106;2022-09-30T09:21:52;5.07;;;4.57;;
17917;SDS011;9084;50.956;3.106;2022-09-30T09:24:22;4.88;;;4.45;;
17917;SDS011;9084;50.956;3.106;2022-09-30T09:26:53;6.72;;;4.80;;
17917;SDS011;9084;50.956;3.106;2022-09-30T09:31:58;4.97;;;4.57;;
17917;SDS011;9084;50.956;3.106;2022-09-30T09:34:28;6.38;;;4.63;;
17917;SDS011;9084;50.956;3.106;2022-09-30T09:45:15;5.50;;;5.00;;
17917;SDS011;9084;50.956;3.106;2022-09-30T09:47:54;5.40;;;4.90;;
17917;SDS011;9084;50.956;3.106;2022-09-30T09:50:35;5.18;;;4.68;;
17917;SDS011;9084;50.956;3.106;2022-09-30T09:53:19;5.63;;;5.18;;
17917;SDS011;9084;50.956;3.106;2022-09-30T09:56:13;4.30;;;3.90;;
17917;SDS011;9084;50.956;3.106;2022-09-30T09:59:02;4.80;;;4.35;;
17917;SDS011;9084;50.956;3.106;2022-09-30T10:01:51;4.90;;;3.90;;
17917;SDS011;9084;50.956;3.106;2022-09-30T10:04:23;3.60;;;3.30;;
17917;SDS011;9084;50.956;3.106;2022-09-30T10:07:11;3.88;;;3.45;;
17917;SDS011;9084;50.956;3.106;2022-09-30T10:09:41;3.75;;;3.45;;
17917;SDS011;9084;50.956;3.106;2022-09-30T10:14:36;3.65;;;3.15;;
17917;SDS011;9084;50.956;3.106;2022-09-30T10:17:19;3.55;;;2.90;;
17917;SDS011;9084;50.956;3.106;2022-09-30T10:23:37;4.75;;;3.83;;
17917;SDS011;9084;50.956;3.106;2022-09-30T10:26:25;3.03;;;2.72;;
17917;SDS011;9084;50.956;3.106;2022-09-30T10:28:53;4.43;;;3.63;;
17917;SDS011;9084;50.956;3.106;2022-09-30T10:36:58;4.38;;;3.97;;
17917;SDS011;9084;50.956;3.106;2022-09-30T10:42:44;4.15;;;3.75;;
17917;SDS011;9084;50.956;3.106;2022-09-30T10:45:17;3.72;;;3.42;;
17917;SDS011;9084;50.956;3.106;2022-09-30T10:47:55;5.43;;;3.60;;
17917;SDS011;9084;50.956;3.106;2022-09-30T10:50:25;4.68;;;3.88;;
17917;SDS011;9084;50.956;3.106;2022-09-30T10:52:56;8.25;;;3.53;;
17917;SDS011;9084;50.956;3.106;2022-09-30T10:55:33;4.38;;;3.83;;
17917;SDS011;9084;50.956;3.106;2022-09-30T11:01:03;2.90;;;2.55;;
17917;SDS011;9084;50.956;3.106;2022-09-30T11:06:21;2.80;;;2.60;;
17917;SDS011;9084;50.956;3.106;2022-09-30T11:08:56;3.22;;;2.80;;
17917;SDS011;9084;50.956;3.106;2022-09-30T11:11:46;3.90;;;2.88;;
17917;SDS011;9084;50.956;3.106;2022-09-30T11:17:51;3.40;;;3.10;;
17917;SDS011;9084;50.956;3.106;2022-09-30T11:20:24;3.58;;;3.30;;
17917;SDS011;9084;50.956;3.106;2022-09-30T11:28:34;3.35;;;2.97;;
17917;SDS011;9084;50.956;3.106;2022-09-30T11:37:16;6.35;;;3.22;;
17917;SDS011;9084;50.956;3.106;2022-09-30T11:40:01;3.35;;;3.05;;
17917;SDS011;9084;50.956;3.106;2022-09-30T11:42:56;5.95;;;3.13;;
17917;SDS011;9084;50.956;3.106;2022-09-30T11:59:36;4.18;;;1.05;;
17917;SDS011;9084;50.956;3.106;2022-09-30T12:02:17;1.50;;;1.40;;
17917;SDS011;9084;50.956;3.106;2022-09-30T12:05:02;1.60;;;1.10;;
17917;SDS011;9084;50.956;3.106;2022-09-30T12:07:42;2.15;;;1.33;;
17917;SDS011;9084;50.956;3.106;2022-09-30T12:10:19;1.80;;;1.10;;
17917;SDS011;9084;50.956;3.106;2022-09-30T12:12:53;1.67;;;1.20;;
17917;SDS011;9084;50.956;3.106;2022-09-30T12:15:25;1.10;;;1.02;;
17917;SDS011;9084;50.956;3.106;2022-09-30T12:17:54;2.28;;;1.10;;
17917;SDS011;9084;50.956;3.106;2022-09-30T12:23:26;0.95;;;0.75;;
17917;SDS011;9084;50.956;3.106;2022-09-30T12:25:58;2.17;;;1.10;;
17917;SDS011;9084;50.956;3.106;2022-09-30T12:42:56;1.13;;;1.00;;
17917;SDS011;9084;50.956;3.106;2022-09-30T12:48:13;4.07;;;1.15;;
17917;SDS011;9084;50.956;3.106;2022-09-30T12:50:44;2.45;;;1.45;;
17917;SDS011;9084;50.956;3.106;2022-09-30T12:53:30;1.30;;;1.20;;
17917;SDS011;9084;50.956;3.106;2022-09-30T12:56:01;2.88;;;1.40;;
17917;SDS011;9084;50.956;3.106;2022-09-30T12:58:30;2.35;;;1.10;;
17917;SDS011;9084;50.956;3.106;2022-09-30T13:03:47;1.00;;;0.90;;
17917;SDS011;9084;50.956;3.106;2022-09-30T13:06:15;1.20;;;1.00;;
17917;SDS011;9084;50.956;3.106;2022-09-30T13:08:43;2.97;;;1.08;;
17917;SDS011;9084;50.956;3.106;2022-09-30T13:11:21;0.93;;;0.90;;
17917;SDS011;9084;50.956;3.106;2022-09-30T13:14:02;1.00;;;0.90;;
17917;SDS011;9084;50.956;3.106;2022-09-30T13:19:36;1.80;;;1.25;;
17917;SDS011;9084;50.956;3.106;2022-09-30T13:27:45;2.05;;;1.35;;
17917;SDS011;9084;50.956;3.106;2022-09-30T13:43:33;1.73;;;1.30;;
17917;SDS011;9084;50.956;3.106;2022-09-30T13:46:21;4.07;;;1.20;;
17917;SDS011;9084;50.956;3.106;2022-09-30T13:48:57;2.20;;;1.23;;
17917;SDS011;9084;50.956;3.106;2022-09-30T13:51:30;3.45;;;1.02;;
17917;SDS011;9084;50.956;3.106;2022-09-30T13:53:58;1.35;;;0.90;;
17917;SDS011;9084;50.956;3.106;2022-09-30T13:56:32;2.05;;;1.00;;
17917;SDS011;9084;50.956;3.106;2022-09-30T14:02:00;1.10;;;0.90;;
17917;SDS011;9084;50.956;3.106;2022-09-30T14:24:09;1.70;;;0.90;;
17917;SDS011;9084;50.956;3.106;2022-09-30T14:31:45;1.13;;;0.90;;
17917;SDS011;9084;50.956;3.106;2022-09-30T14:34:13;4.80;;;1.05;;
17917;SDS011;9084;50.956;3.106;2022-09-30T14:36:41;0.70;;;0.50;;
17917;SDS011;9084;50.956;3.106;2022-09-30T14:39:18;1.58;;;0.98;;
17917;SDS011;9084;50.956;3.106;2022-09-30T14:41:49;3.13;;;0.90;;
17917;SDS011;9084;50.956;3.106;2022-09-30T14:44:23;1.02;;;0.93;;
17917;SDS011;9084;50.956;3.106;2022-09-30T14:46:52;1.40;;;1.05;;
17917;SDS011;9084;50.956;3.106;2022-09-30T14:49:24;1.13;;;0.70;;
17917;SDS011;9084;50.956;3.106;2022-09-30T14:51:58;0.80;;;0.80;;
17917;SDS011;9084;50.956;3.106;2022-09-30T14:54:26;2.05;;;0.90;;
17917;SDS011;9084;50.956;3.106;2022-09-30T14:56:53;1.05;;;0.75;;
17917;SDS011;9084;50.956;3.106;2022-09-30T14:59:25;1.42;;;1.02;;
17917;SDS011;9084;50.956;3.106;2022-09-30T15:02:17;1.30;;;0.90;;
17917;SDS011;9084;50.956;3.106;2022-09-30T15:04:49;1.17;;;0.98;;
17917;SDS011;9084;50.956;3.106;2022-09-30T15:07:17;2.10;;;1.05;;
17917;SDS011;9084;50.956;3.106;2022-09-30T15:09:46;2.38;;;1.10;;
17917;SDS011;9084;50.956;3.106;2022-09-30T15:14:47;2.17;;;1.15;;
17917;SDS011;9084;50.956;3.106;2022-09-30T15:17:16;1.33;;;1.00;;
17917;SDS011;9084;50.956;3.106;2022-09-30T15:19:47;3.28;;;0.85;;
17917;SDS011;9084;50.956;3.106;2022-09-30T15:22:18;1.90;;;0.80;;
17917;SDS011;9084;50.956;3.106;2022-09-30T15:24:46;1.25;;;0.77;;
17917;SDS011;9084;50.956;3.106;2022-09-30T15:29:54;2.17;;;1.20;;
17917;SDS011;9084;50.956;3.106;2022-09-30T15:32:26;5.13;;;1.10;;
17917;SDS011;9084;50.956;3.106;2022-09-30T15:34:55;1.38;;;0.98;;
17917;SDS011;9084;50.956;3.106;2022-09-30T15:37:29;0.98;;;0.80;;
17917;SDS011;9084;50.956;3.106;2022-09-30T15:39:57;1.23;;;1.13;;
17917;SDS011;9084;50.956;3.106;2022-09-30T15:42:55;1.58;;;1.13;;
17917;SDS011;9084;50.956;3.106;2022-09-30T15:45:32;1.08;;;0.98;;
17917;SDS011;9084;50.956;3.106;2022-09-30T15:50:52;2.25;;;1.35;;
17917;SDS011;9084;50.956;3.106;2022-09-30T15:53:20;1.77;;;1.30;;
17917;SDS011;9084;50.956;3.106;2022-09-30T15:55:54;1.92;;;1.33;;
17917;SDS011;9084;50.956;3.106;2022-09-30T16:06:31;2.53;;;1.40;;
17917;SDS011;9084;50.956;3.106;2022-09-30T16:09:07;1.35;;;1.25;;
17917;SDS011;9084;50.956;3.106;2022-09-30T16:11:55;1.48;;;1.38;;
17917;SDS011;9084;50.956;3.106;2022-09-30T16:14:30;1.77;;;1.35;;
17917;SDS011;9084;50.956;3.106;2022-09-30T16:17:05;1.40;;;1.13;;
17917;SDS011;9084;50.956;3.106;2022-09-30T16:19:39;1.52;;;1.30;;
17917;SDS011;9084;50.956;3.106;2022-09-30T16:22:18;2.55;;;1.55;;
17917;SDS011;9084;50.956;3.106;2022-09-30T16:25:00;2.33;;;1.75;;
17917;SDS011;9084;50.956;3.106;2022-09-30T16:27:36;2.28;;;1.58;;
17917;SDS011;9084;50.956;3.106;2022-09-30T16:30:03;1.80;;;1.70;;
17917;SDS011;9084;50.956;3.106;2022-09-30T16:32:31;1.58;;;1.48;;
17917;SDS011;9084;50.956;3.106;2022-09-30T16:35:00;2.33;;;1.75;;
17917;SDS011;9084;50.956;3.106;2022-09-30T16:37:27;3.53;;;1.60;;
17917;SDS011;9084;50.956;3.106;2022-09-30T16:39:54;1.83;;;1.70;;
17917;SDS011;9084;50.956;3.106;2022-09-30T16:42:22;4.03;;;2.10;;
17917;SDS011;9084;50.956;3.106;2022-09-30T16:44:48;4.05;;;2.03;;
17917;SDS011;9084;50.956;3.106;2022-09-30T16:47:15;2.30;;;1.63;;
17917;SDS011;9084;50.956;3.106;2022-09-30T16:49:44;1.80;;;1.70;;
17917;SDS011;9084;50.956;3.106;2022-09-30T16:52:12;2.20;;;1.80;;
17917;SDS011;9084;50.956;3.106;2022-09-30T16:54:39;3.00;;;1.67;;
17917;SDS011;9084;50.956;3.106;2022-09-30T16:57:06;1.73;;;1.63;;
17917;SDS011;9084;50.956;3.106;2022-09-30T16:59:34;4.25;;;2.20;;
17917;SDS011;9084;50.956;3.106;2022-09-30T17:02:00;2.70;;;1.92;;
17917;SDS011;9084;50.956;3.106;2022-09-30T17:04:27;4.30;;;2.22;;
17917;SDS011;9084;50.956;3.106;2022-09-30T17:06:56;2.05;;;1.90;;
17917;SDS011;9084;50.956;3.106;2022-09-30T17:09:22;3.97;;;2.05;;
17917;SDS011;9084;50.956;3.106;2022-09-30T17:11:49;1.60;;;1.50;;
17917;SDS011;9084;50.956;3.106;2022-09-30T17:14:19;2.22;;;1.83;;
17917;SDS011;9084;50.956;3.106;2022-09-30T17:16:45;1.60;;;1.50;;
17917;SDS011;9084;50.956;3.106;2022-09-30T17:19:16;1.73;;;1.63;;
17917;SDS011;9084;50.956;3.106;2022-09-30T17:21:49;2.65;;;1.50;;
17917;SDS011;9084;50.956;3.106;2022-09-30T17:24:14;2.33;;;1.70;;
17917;SDS011;9084;50.956;3.106;2022-09-30T17:26:40;3.85;;;1.77;;
17917;SDS011;9084;50.956;3.106;2022-09-30T17:29:08;2.28;;;1.75;;
17917;SDS011;9084;50.956;3.106;2022-09-30T17:31:34;2.72;;;1.40;;
17917;SDS011;9084;50.956;3.106;2022-09-30T17:34:05;5.03;;;4.63;;
17917;SDS011;9084;50.956;3.106;2022-09-30T17:36:32;1.77;;;1.67;;
17917;SDS011;9084;50.956;3.106;2022-09-30T17:39:00;3.15;;;1.20;;
17917;SDS011;9084;50.956;3.106;2022-09-30T17:41:26;1.60;;;1.50;;
17917;SDS011;9084;50.956;3.106;2022-09-30T17:44:11;1.60;;;1.50;;
17917;SDS011;9084;50.956;3.106;2022-09-30T17:46:40;1.60;;;1.27;;
17917;SDS011;9084;50.956;3.106;2022-09-30T17:49:07;1.35;;;1.20;;
17917;SDS011;9084;50.956;3.106;2022-09-30T17:51:39;1.38;;;1.27;;
17917;SDS011;9084;50.956;3.106;2022-09-30T17:54:05;1.55;;;1.45;;
17917;SDS011;9084;50.956;3.106;2022-09-30T17:56:36;2.85;;;1.10;;
17917;SDS011;9084;50.956;3.106;2022-09-30T17:59:02;1.27;;;1.17;;
17917;SDS011;9084;50.956;3.106;2022-09-30T18:01:29;1.38;;;1.27;;
17917;SDS011;9084;50.956;3.106;2022-09-30T18:03:58;1.20;;;1.10;;
17917;SDS011;9084;50.956;3.106;2022-09-30T18:06:24;1.42;;;1.33;;
17917;SDS011;9084;50.956;3.106;2022-09-30T18:08:55;1.25;;;1.13;;
17917;SDS011;9084;50.956;3.106;2022-09-30T18:11:21;1.80;;;1.17;;
17917;SDS011;9084;50.956;3.106;2022-09-30T18:13:58;1.40;;;1.30;;
17917;SDS011;9084;50.956;3.106;2022-09-30T18:16:28;1.13;;;1.02;;
17917;SDS011;9084;50.956;3.106;2022-09-30T18:18:57;2.88;;;1.33;;
17917;SDS011;9084;50.956;3.106;2022-09-30T18:21:24;1.65;;;0.90;;
17917;SDS011;9084;50.956;3.106;2022-09-30T18:23:53;0.82;;;0.80;;
17917;SDS011;9084;50.956;3.106;2022-09-30T18:26:21;3.00;;;0.98;;
17917;SDS011;9084;50.956;3.106;2022-09-30T18:28:48;1.55;;;1.08;;
17917;SDS011;9084;50.956;3.106;2022-09-30T18:31:16;1.15;;;0.90;;
17917;SDS011;9084;50.956;3.106;2022-09-30T18:33:53;0.93;;;0.68;;
17917;SDS011;9084;50.956;3.106;2022-09-30T18:36:22;1.27;;;1.10;;
17917;SDS011;9084;50.956;3.106;2022-09-30T18:38:49;3.88;;;1.10;;
17917;SDS011;9084;50.956;3.106;2022-09-30T18:41:17;0.93;;;0.82;;
17917;SDS011;9084;50.956;3.106;2022-09-30T18:43:46;1.38;;;1.00;;
17917;SDS011;9084;50.956;3.106;2022-09-30T18:46:14;0.90;;;0.80;;
17917;SDS011;9084;50.956;3.106;2022-09-30T18:48:42;1.08;;;0.90;;
17917;SDS011;9084;50.956;3.106;2022-09-30T18:51:08;1.40;;;1.05;;
17917;SDS011;9084;50.956;3.106;2022-09-30T18:53:34;0.82;;;0.73;;
17917;SDS011;9084;50.956;3.106;2022-09-30T18:56:03;2.72;;;1.13;;